createdAt,value
2023-09-28T00:00:03.910Z,94.769
2023-09-28T00:05:04.190Z,94.672
2023-09-28T00:10:03.297Z,94.568
2023-09-28T00:15:03.262Z,94.568
2023-09-28T00:20:04.084Z,94.611
2023-09-28T00:25:03.976Z,94.672
2023-09-28T00:30:03.723Z,94.873
2023-09-28T00:35:03.448Z,95.074
2023-09-28T00:40:03.310Z,95.178
2023-09-28T00:45:03.995Z,95.276
2023-09-28T00:50:03.858Z,95.526
2023-09-28T00:55:03.864Z,95.526
2023-09-28T01:00:03.541Z,95.63
2023-09-28T01:05:03.403Z,95.63
2023-09-28T01:10:03.435Z,95.831
2023-09-28T01:15:04.162Z,95.63
2023-09-28T01:20:04.130Z,95.325
2023-09-28T01:25:03.943Z,96.179
2023-09-28T01:30:03.656Z,95.978
2023-09-28T01:35:03.445Z,96.484
2023-09-28T01:40:03.369Z,96.588
2023-09-28T01:45:03.264Z,96.936
2023-09-28T01:50:04.220Z,96.631
2023-09-28T01:55:03.487Z,96.533
2023-09-28T02:00:03.214Z,96.326
2023-09-28T02:05:04.199Z,96.228
2023-09-28T02:10:03.270Z,96.228
2023-09-28T02:15:03.932Z,96.069
2023-09-28T02:20:03.762Z,96.271
2023-09-28T02:25:03.548Z,96.069
2023-09-28T02:30:03.135Z,96.68
2023-09-28T02:35:04.000Z,96.881
2023-09-28T02:40:03.889Z,96.881
2023-09-28T02:45:03.525Z,96.472
2023-09-28T02:50:03.269Z,95.966
2023-09-28T02:55:04.148Z,95.05
2023-09-28T03:00:03.853Z,94.44
2023-09-28T03:05:03.682Z,94.745
2023-09-28T03:10:03.430Z,94.342
2023-09-28T03:15:04.147Z,94.196
2023-09-28T03:20:04.109Z,93.988
2023-09-28T03:25:05.749Z,93.585
2023-09-28T03:30:03.374Z,93.427
2023-09-28T03:35:04.237Z,93.427
2023-09-28T03:40:03.968Z,93.628
2023-09-28T03:45:03.672Z,93.427
2023-09-28T03:50:03.437Z,93.323
2023-09-28T03:55:03.299Z,93.427
2023-09-28T04:00:03.944Z,93.427
2023-09-28T04:05:03.817Z,93.323
2023-09-28T04:10:03.778Z,93.323
2023-09-28T04:15:03.472Z,93.427
2023-09-28T04:20:03.297Z,93.829
2023-09-28T04:25:04.016Z,93.671
2023-09-28T04:30:03.737Z,93.774
2023-09-28T04:35:03.981Z,93.774
2023-09-28T04:40:03.757Z,93.774
2023-09-28T04:45:03.399Z,93.872
2023-09-28T04:50:03.432Z,94.482
2023-09-28T04:55:08.497Z,94.385
2023-09-28T05:00:03.674Z,94.482
2023-09-28T05:05:03.700Z,94.891
2023-09-28T05:10:03.623Z,94.891
2023-09-28T05:15:04.055Z,94.995
2023-09-28T05:20:03.736Z,94.891
2023-09-28T05:25:03.163Z,94.891
2023-09-28T05:30:03.341Z,94.788
2023-09-28T05:35:03.554Z,94.69
2023-09-28T05:40:03.452Z,95.05
2023-09-28T05:45:03.260Z,94.946
2023-09-28T05:50:04.078Z,94.543
2023-09-28T05:55:03.981Z,93.787
2023-09-28T06:00:03.759Z,93.237
2023-09-28T06:05:03.625Z,93.188
2023-09-28T06:10:03.636Z,93.396
2023-09-28T06:15:03.937Z,92.798
2023-09-28T06:20:04.227Z,91.742
2023-09-28T06:25:04.365Z,90.485
2023-09-28T06:30:04.037Z,88.922
2023-09-28T06:35:03.839Z,87.665
2023-09-28T06:40:03.744Z,86.67
2023-09-28T06:45:03.402Z,84.369
2023-09-28T06:50:03.314Z,81.763
2023-09-28T06:55:03.163Z,81.183
2023-09-28T07:00:03.913Z,80.438
2023-09-28T07:05:03.776Z,78.955
2023-09-28T07:10:03.764Z,78.473
2023-09-28T07:15:04.104Z,75.989
2023-09-28T07:20:04.084Z,74.207
2023-09-28T07:25:03.522Z,72.534
2023-09-28T07:30:03.814Z,72.363
2023-09-28T07:35:03.607Z,69.989
2023-09-28T07:40:03.898Z,70.258
2023-09-28T07:45:03.695Z,69.824
2023-09-28T07:50:03.509Z,69.525
2023-09-28T07:55:03.266Z,68.195
2023-09-28T08:00:04.032Z,68.158
2023-09-28T08:05:03.995Z,65.631
2023-09-28T08:10:05.826Z,65.729
2023-09-28T08:15:03.584Z,64.203
2023-09-28T08:20:03.642Z,64.636
2023-09-28T08:25:03.440Z,62.311
2023-09-28T08:30:07.723Z,61.615
2023-09-28T08:35:03.587Z,61.884
2023-09-28T08:40:03.611Z,62.585
2023-09-28T08:45:03.774Z,60.962
2023-09-28T08:50:04.186Z,60.535
2023-09-28T08:55:04.338Z,59.906
2023-09-28T09:00:03.629Z,59.009
2023-09-28T09:05:03.610Z,59.18
2023-09-28T09:10:04.015Z,57.928
2023-09-28T09:15:05.887Z,59.222
2023-09-28T09:20:03.971Z,57.037
2023-09-28T09:25:04.146Z,57.434
2023-09-28T09:30:04.389Z,57.306
2023-09-28T09:35:08.302Z,57.581
2023-09-28T09:40:03.616Z,56.134
2023-09-28T09:45:03.938Z,53.381
2023-09-28T09:50:04.103Z,53.455
2023-09-28T09:55:03.264Z,51.868
2023-09-28T10:00:03.984Z,51.544
2023-09-28T10:05:03.952Z,51.227
2023-09-28T10:10:03.243Z,50.732
2023-09-28T10:15:04.357Z,52.441
2023-09-28T10:20:03.916Z,54.053
2023-09-28T10:25:05.048Z,53.778
2023-09-28T10:30:04.015Z,54.279
2023-09-28T10:35:03.873Z,54.7
2023-09-28T10:40:03.239Z,54.279
2023-09-28T10:45:03.947Z,53.802
2023-09-28T10:50:03.325Z,51.843
2023-09-28T10:55:03.311Z,51.422
2023-09-28T11:00:04.155Z,50.458
2023-09-28T11:05:04.720Z,51.471
2023-09-28T11:10:03.217Z,52.142
2023-09-28T11:15:04.050Z,51.324
2023-09-28T11:20:03.952Z,51.05
2023-09-28T11:25:03.899Z,51.941
2023-09-28T11:30:03.833Z,50.854
2023-09-28T11:35:03.991Z,51.868
2023-09-28T11:40:03.303Z,52.563
2023-09-28T11:45:03.247Z,52.686
2023-09-28T11:50:04.191Z,53.406
2023-09-28T11:55:04.154Z,54.004
2023-09-28T12:00:04.164Z,54.279
2023-09-28T12:05:03.323Z,53.137
2023-09-28T12:10:05.680Z,55.096
2023-09-28T12:15:03.481Z,55.365
2023-09-28T12:20:03.911Z,54.675
2023-09-28T12:25:03.866Z,54.675
2023-09-28T12:30:03.896Z,54.248
2023-09-28T12:35:03.819Z,53.851
2023-09-28T12:40:03.694Z,54.816
2023-09-28T12:45:03.387Z,52.045
2023-09-28T12:50:04.349Z,53.632
2023-09-28T12:55:03.491Z,53.162
2023-09-28T13:00:03.398Z,51.648
2023-09-28T13:05:03.471Z,51.05
2023-09-28T13:10:03.662Z,51.276
2023-09-28T13:15:03.896Z,50.879
2023-09-28T13:20:03.744Z,51.147
2023-09-28T13:25:03.634Z,51.05
2023-09-28T13:30:03.431Z,51.746
2023-09-28T13:35:03.262Z,52.563
2023-09-28T13:40:04.036Z,52.045
2023-09-28T13:45:03.992Z,51.746
2023-09-28T13:50:04.150Z,51.843
2023-09-28T13:55:04.020Z,52.216
2023-09-28T14:00:03.739Z,51.544
2023-09-28T14:05:03.576Z,51.251
2023-09-28T14:10:03.474Z,51.648
2023-09-28T14:15:03.276Z,52.338
2023-09-28T14:20:04.311Z,52.045
2023-09-28T14:25:03.191Z,50.159
2023-09-28T14:30:03.990Z,51.349
2023-09-28T14:35:06.102Z,50.36
2023-09-28T14:40:03.323Z,50.854
2023-09-28T14:45:06.289Z,51.648
2023-09-28T14:50:04.425Z,51.868
2023-09-28T14:55:03.472Z,52.264
2023-09-28T15:00:03.397Z,51.971
2023-09-28T15:05:03.514Z,51.398
2023-09-28T15:10:03.520Z,52.563
2023-09-28T15:15:03.322Z,53.778
2023-09-28T15:20:04.522Z,53.705
2023-09-28T15:25:03.615Z,54.724
2023-09-28T15:30:03.628Z,55.225
2023-09-28T15:35:03.707Z,55.914
2023-09-28T15:40:03.668Z,55.719
2023-09-28T15:45:03.568Z,56.738
2023-09-28T15:50:03.943Z,56.738
2023-09-28T15:55:03.297Z,57.562
2023-09-28T16:00:03.508Z,59.381
2023-09-28T16:05:03.762Z,58.282
2023-09-28T16:10:03.697Z,58.112
2023-09-28T20:50:05.629Z,76.398
2023-09-28T20:55:03.391Z,76.501
2023-09-28T21:00:03.253Z,76.801
2023-09-28T21:05:04.063Z,77.142
2023-09-28T21:10:03.765Z,77.545
2023-09-28T21:15:03.566Z,78.149
2023-09-28T21:20:03.412Z,79.291
2023-09-28T21:25:04.114Z,80.841
2023-09-28T21:30:03.801Z,82.129
2023-09-28T21:35:03.682Z,84.027
2023-09-28T21:40:03.666Z,85.278
2023-09-28T21:45:03.563Z,85.779
2023-09-28T21:50:03.457Z,86.731
2023-09-28T21:55:03.235Z,87.842
2023-09-28T22:00:04.090Z,88.696
2023-09-28T22:05:03.872Z,88.94
2023-09-28T22:10:03.537Z,89.142
2023-09-28T22:15:03.274Z,89.893
2023-09-28T22:20:04.080Z,90.399
2023-09-28T22:25:03.701Z,90.643
2023-09-28T22:30:03.510Z,91.046
2023-09-28T22:35:03.356Z,90.948
2023-09-28T22:40:29.208Z,90.338
2023-09-28T22:45:04.018Z,90.033
2023-09-28T22:50:03.762Z,90.381
2023-09-28T22:55:03.490Z,90.582
2023-09-28T23:00:03.291Z,90.887
2023-09-28T23:05:04.087Z,90.887
2023-09-28T23:10:03.832Z,90.582
2023-09-28T23:15:03.470Z,90.729
2023-09-28T23:20:03.438Z,91.235
2023-09-28T23:25:03.225Z,91.382
2023-09-28T23:30:04.000Z,91.681
2023-09-28T23:35:03.756Z,91.681
2023-09-28T23:40:03.444Z,91.888
2023-09-28T23:45:04.148Z,92.438
2023-09-28T23:50:03.902Z,92.438
2023-09-28T23:55:03.679Z,92.438
